sensor_id;sensor_type;location;lat;lon;timestamp;pressure;altitude;pressure_sealevel;temperature;humidity
26178;BME280;13924;47.670;10.310;2023-04-27T00:00:42;93260;;;8.2;100.0
26178;BME280;13924;47.670;10.310;2023-04-27T00:15:42;93240;;;8.1;100.0
26178;BME280;13924;47.670;10.310;2023-04-27T00:30:44;93290;;;8.1;100.0
26178;BME280;13924;47.670;10.310;2023-04-27T00:45:45;93270;;;8.1;100.0
26178;BME280;13924;47.670;10.310;2023-04-27T01:00:45;93250;;;8.0;100.0
26178;BME280;13924;47.670;10.310;2023-04-27T01:01:28;93250;;;8.1;100.0
26178;BME280;13924;47.670;10.310;2023-04-27T01:15:45;93270;;;8.0;100.0
26178;BME280;13924;47.670;10.310;2023-04-27T01:30:46;93310;;;7.9;100.0
26178;BME280;13924;47.670;10.310;2023-04-27T01:45:47;93320;;;7.9;100.0
26178;BME280;13924;47.670;10.310;2023-04-27T02:00:48;93350;;;8.0;100.0
26178;BME280;13924;47.670;10.310;2023-04-27T02:15:47;93390;;;8.0;100.0
26178;BME280;13924;47.670;10.310;2023-04-27T02:30:49;93540;;;7.5;100.0
26178;BME280;13924;47.670;10.310;2023-04-27T09:14:23;93550;;;10.9;100.0
26178;BME280;13924;47.670;10.310;2023-04-27T09:29:31;93550;;;10.9;100.0
26178;BME280;13924;47.670;10.310;2023-04-27T09:44:22;93410;;;11.1;100.0
26178;BME280;13924;47.670;10.310;2023-04-27T09:59:38;93410;;;11.1;100.0
26178;BME280;13924;47.670;10.310;2023-04-27T10:14:27;93370;;;11.6;100.0
26178;BME280;13924;47.670;10.310;2023-04-27T10:29:34;93380;;;11.9;100.0
26178;BME280;13924;47.670;10.310;2023-04-27T10:44:26;93360;;;12.0;100.0
26178;BME280;13924;47.670;10.310;2023-04-27T10:59:25;93370;;;11.9;100.0
26178;BME280;13924;47.670;10.310;2023-04-27T11:14:43;93370;;;11.9;100.0
26178;BME280;13924;47.670;10.310;2023-04-27T11:29:36;93340;;;13.5;100.0
26178;BME280;13924;47.670;10.310;2023-04-27T11:44:26;93340;;;14.4;100.0
26178;BME280;13924;47.670;10.310;2023-04-27T11:59:33;93340;;;14.4;100.0
26178;BME280;13924;47.670;10.310;2023-04-27T12:14:28;93320;;;14.7;100.0
26178;BME280;13924;47.670;10.310;2023-04-27T12:29:33;93320;;;14.7;100.0
26178;BME280;13924;47.670;10.310;2023-04-27T12:44:29;93310;;;14.9;100.0
26178;BME280;13924;47.670;10.310;2023-04-27T12:59:36;93310;;;14.9;100.0
26178;BME280;13924;47.670;10.310;2023-04-27T13:14:29;93280;;;15.1;95.2
26178;BME280;13924;47.670;10.310;2023-04-27T13:29:37;93280;;;15.1;95.2
26178;BME280;13924;47.670;10.310;2023-04-27T13:44:30;93250;;;16.8;100.0
26178;BME280;13924;47.670;10.310;2023-04-27T13:59:32;93270;;;18.5;100.0
26178;BME280;13924;47.670;10.310;2023-04-27T14:14:32;93260;;;17.7;100.0
26178;BME280;13924;47.670;10.310;2023-04-27T14:29:35;93260;;;17.7;100.0
26178;BME280;13924;47.670;10.310;2023-04-27T14:44:37;93240;;;17.2;100.0
26178;BME280;13924;47.670;10.310;2023-04-27T14:59:33;93250;;;18.2;100.0
26178;BME280;13924;47.670;10.310;2023-04-27T15:14:35;93250;;;18.2;100.0
26178;BME280;13924;47.670;10.310;2023-04-27T15:44:40;93240;;;17.4;100.0
26178;BME280;13924;47.670;10.310;2023-04-27T15:59:35;93220;;;17.3;83.1
26178;BME280;13924;47.670;10.310;2023-04-27T16:14:49;93220;;;17.3;83.1
26178;BME280;13924;47.670;10.310;2023-04-27T16:30:05;93210;;;16.6;78.5
26178;BME280;13924;47.670;10.310;2023-04-27T17:29:47;93210;;;17.1;77.9
26178;BME280;13924;47.670;10.310;2023-04-27T17:44:45;93220;;;15.7;100.0
26178;BME280;13924;47.670;10.310;2023-04-27T18:14:42;93240;;;15.3;100.0
26178;BME280;13924;47.670;10.310;2023-04-27T18:29:46;93240;;;14.7;100.0
26178;BME280;13924;47.670;10.310;2023-04-27T18:45:14;93250;;;14.5;100.0
26178;BME280;13924;47.670;10.310;2023-04-27T18:59:47;93260;;;14.3;100.0
26178;BME280;13924;47.670;10.310;2023-04-27T19:14:42;93280;;;13.5;100.0
26178;BME280;13924;47.670;10.310;2023-04-27T19:29:49;93280;;;13.5;100.0
26178;BME280;13924;47.670;10.310;2023-04-27T19:44:43;93280;;;12.8;100.0
26178;BME280;13924;47.670;10.310;2023-04-27T19:59:51;93280;;;12.8;100.0
26178;BME280;13924;47.670;10.310;2023-04-27T20:14:45;93320;;;11.3;100.0
26178;BME280;13924;47.670;10.310;2023-04-27T20:29:46;93280;;;11.6;100.0
26178;BME280;13924;47.670;10.310;2023-04-27T20:44:45;93270;;;11.7;100.0
26178;BME280;13924;47.670;10.310;2023-04-27T20:59:46;93270;;;11.7;100.0
26178;BME280;13924;47.670;10.310;2023-04-27T21:14:48;93270;;;11.7;100.0
26178;BME280;13924;47.670;10.310;2023-04-27T21:29:47;93290;;;10.5;100.0
26178;BME280;13924;47.670;10.310;2023-04-27T21:44:48;93300;;;10.4;100.0
26178;BME280;13924;47.670;10.310;2023-04-27T21:59:48;93300;;;10.1;100.0
26178;BME280;13924;47.670;10.310;2023-04-27T22:00:43;93310;;;10.1;100.0
26178;BME280;13924;47.670;10.310;2023-04-27T22:15:40;93310;;;10.1;100.0
26178;BME280;13924;47.670;10.310;2023-04-27T22:30:45;93290;;;10.0;100.0
